sensor_id;sensor_type;location;lat;lon;timestamp;P1;durP1;ratioP1;P2;durP2;ratioP2
51616;SDS011;37697;52.588;13.394;2022-10-31T00:02:23;29.60;;;22.67;;
51616;SDS011;37697;52.588;13.394;2022-10-31T00:07:24;29.70;;;22.65;;
51616;SDS011;37697;52.588;13.394;2022-10-31T00:12:25;27.00;;;22.17;;
51616;SDS011;37697;52.588;13.394;2022-10-31T00:17:26;27.60;;;22.48;;
51616;SDS011;37697;52.588;13.394;2022-10-31T00:22:27;28.13;;;23.10;;
51616;SDS011;37697;52.588;13.394;2022-10-31T00:27:27;27.35;;;23.50;;
51616;SDS011;37697;52.588;13.394;2022-10-31T00:32:29;32.08;;;24.60;;
51616;SDS011;37697;52.588;13.394;2022-10-31T00:42:30;30.60;;;23.27;;
51616;SDS011;37697;52.588;13.394;2022-10-31T00:47:31;31.50;;;24.53;;
51616;SDS011;37697;52.588;13.394;2022-10-31T00:52:32;33.27;;;26.30;;
51616;SDS011;37697;52.588;13.394;2022-10-31T01:02:34;30.68;;;24.37;;
51616;SDS011;37697;52.588;13.394;2022-10-31T01:07:38;27.15;;;23.30;;
51616;SDS011;37697;52.588;13.394;2022-10-31T01:12:41;32.83;;;25.72;;
51616;SDS011;37697;52.588;13.394;2022-10-31T01:17:46;35.63;;;24.67;;
51616;SDS011;37697;52.588;13.394;2022-10-31T01:22:48;30.20;;;24.30;;
51616;SDS011;37697;52.588;13.394;2022-10-31T01:27:48;33.35;;;25.17;;
51616;SDS011;37697;52.588;13.394;2022-10-31T01:32:49;28.40;;;24.13;;
51616;SDS011;37697;52.588;13.394;2022-10-31T01:37:50;30.40;;;24.25;;
51616;SDS011;37697;52.588;13.394;2022-10-31T01:42:50;30.37;;;23.87;;
51616;SDS011;37697;52.588;13.394;2022-10-31T01:47:51;31.40;;;24.30;;
51616;SDS011;37697;52.588;13.394;2022-10-31T01:52:52;35.93;;;25.40;;
51616;SDS011;37697;52.588;13.394;2022-10-31T01:57:54;29.15;;;23.00;;
51616;SDS011;37697;52.588;13.394;2022-10-31T02:03:05;29.77;;;23.52;;
51616;SDS011;37697;52.588;13.394;2022-10-31T02:08:07;30.88;;;24.47;;
51616;SDS011;37697;52.588;13.394;2022-10-31T02:13:12;30.50;;;23.98;;
51616;SDS011;37697;52.588;13.394;2022-10-31T02:18:14;28.55;;;24.18;;
51616;SDS011;37697;52.588;13.394;2022-10-31T02:29:01;29.80;;;23.32;;
51616;SDS011;37697;52.588;13.394;2022-10-31T02:34:38;30.35;;;24.12;;
51616;SDS011;37697;52.588;13.394;2022-10-31T02:45:31;26.52;;;21.25;;
51616;SDS011;37697;52.588;13.394;2022-10-31T02:50:52;29.98;;;23.67;;
51616;SDS011;37697;52.588;13.394;2022-10-31T02:55:57;30.02;;;22.22;;
51616;SDS011;37697;52.588;13.394;2022-10-31T03:06:35;26.50;;;20.48;;
51616;SDS011;37697;52.588;13.394;2022-10-31T03:12:04;26.45;;;20.82;;
51616;SDS011;37697;52.588;13.394;2022-10-31T03:17:14;25.57;;;20.80;;
51616;SDS011;37697;52.588;13.394;2022-10-31T03:27:26;27.20;;;20.15;;
51616;SDS011;37697;52.588;13.394;2022-10-31T03:37:36;26.42;;;19.42;;
51616;SDS011;37697;52.588;13.394;2022-10-31T03:42:40;23.57;;;19.37;;
51616;SDS011;37697;52.588;13.394;2022-10-31T03:47:44;21.68;;;17.95;;
51616;SDS011;37697;52.588;13.394;2022-10-31T03:52:47;25.10;;;18.77;;
51616;SDS011;37697;52.588;13.394;2022-10-31T04:03:07;24.67;;;17.35;;
51616;SDS011;37697;52.588;13.394;2022-10-31T04:08:19;19.37;;;15.58;;
51616;SDS011;37697;52.588;13.394;2022-10-31T04:13:26;21.45;;;15.35;;
51616;SDS011;37697;52.588;13.394;2022-10-31T04:18:30;18.23;;;14.90;;
51616;SDS011;37697;52.588;13.394;2022-10-31T04:23:31;18.62;;;14.18;;
51616;SDS011;37697;52.588;13.394;2022-10-31T04:28:33;17.92;;;13.80;;
51616;SDS011;37697;52.588;13.394;2022-10-31T04:33:34;20.93;;;13.47;;
51616;SDS011;37697;52.588;13.394;2022-10-31T04:38:34;17.90;;;13.00;;
51616;SDS011;37697;52.588;13.394;2022-10-31T04:43:35;16.87;;;12.50;;
51616;SDS011;37697;52.588;13.394;2022-10-31T04:48:36;15.33;;;12.90;;
51616;SDS011;37697;52.588;13.394;2022-10-31T04:53:36;19.30;;;12.98;;
51616;SDS011;37697;52.588;13.394;2022-10-31T04:58:37;17.95;;;12.05;;
51616;SDS011;37697;52.588;13.394;2022-10-31T05:03:38;17.48;;;12.18;;
51616;SDS011;37697;52.588;13.394;2022-10-31T05:08:39;16.97;;;12.05;;
51616;SDS011;37697;52.588;13.394;2022-10-31T05:13:40;17.25;;;11.28;;
51616;SDS011;37697;52.588;13.394;2022-10-31T05:18:41;16.47;;;11.63;;
51616;SDS011;37697;52.588;13.394;2022-10-31T05:23:42;15.85;;;10.55;;
51616;SDS011;37697;52.588;13.394;2022-10-31T05:28:42;16.10;;;11.40;;
51616;SDS011;37697;52.588;13.394;2022-10-31T05:33:43;14.20;;;10.73;;
51616;SDS011;37697;52.588;13.394;2022-10-31T05:38:44;12.87;;;10.60;;
51616;SDS011;37697;52.588;13.394;2022-10-31T05:43:45;14.80;;;10.80;;
51616;SDS011;37697;52.588;13.394;2022-10-31T05:48:46;13.40;;;9.60;;
51616;SDS011;37697;52.588;13.394;2022-10-31T05:53:46;11.88;;;9.55;;
51616;SDS011;37697;52.588;13.394;2022-10-31T05:58:47;16.40;;;12.23;;
51616;SDS011;37697;52.588;13.394;2022-10-31T06:03:49;14.33;;;9.90;;
51616;SDS011;37697;52.588;13.394;2022-10-31T06:08:49;13.13;;;10.08;;
51616;SDS011;37697;52.588;13.394;2022-10-31T06:13:50;12.65;;;10.10;;
51616;SDS011;37697;52.588;13.394;2022-10-31T06:18:51;11.90;;;9.63;;
51616;SDS011;37697;52.588;13.394;2022-10-31T06:23:51;13.10;;;10.13;;
51616;SDS011;37697;52.588;13.394;2022-10-31T06:28:52;15.80;;;10.05;;
51616;SDS011;37697;52.588;13.394;2022-10-31T06:33:52;13.05;;;9.80;;
51616;SDS011;37697;52.588;13.394;2022-10-31T06:38:54;13.13;;;9.03;;
51616;SDS011;37697;52.588;13.394;2022-10-31T06:43:54;15.13;;;11.07;;
51616;SDS011;37697;52.588;13.394;2022-10-31T06:48:55;16.93;;;10.60;;
51616;SDS011;37697;52.588;13.394;2022-10-31T06:53:56;12.40;;;9.30;;
51616;SDS011;37697;52.588;13.394;2022-10-31T06:58:57;14.87;;;9.57;;
51616;SDS011;37697;52.588;13.394;2022-10-31T07:03:57;14.73;;;11.05;;
51616;SDS011;37697;52.588;13.394;2022-10-31T07:08:58;16.48;;;12.07;;
51616;SDS011;37697;52.588;13.394;2022-10-31T07:13:59;19.05;;;12.78;;
51616;SDS011;37697;52.588;13.394;2022-10-31T07:18:59;21.80;;;15.30;;
51616;SDS011;37697;52.588;13.394;2022-10-31T07:24:00;20.47;;;14.03;;
51616;SDS011;37697;52.588;13.394;2022-10-31T07:29:01;23.40;;;13.78;;
51616;SDS011;37697;52.588;13.394;2022-10-31T07:34:01;19.33;;;13.70;;
51616;SDS011;37697;52.588;13.394;2022-10-31T07:39:02;20.43;;;14.45;;
51616;SDS011;37697;52.588;13.394;2022-10-31T07:44:03;21.63;;;14.47;;
51616;SDS011;37697;52.588;13.394;2022-10-31T07:49:04;16.27;;;11.97;;
51616;SDS011;37697;52.588;13.394;2022-10-31T07:54:05;17.73;;;12.90;;
51616;SDS011;37697;52.588;13.394;2022-10-31T07:59:05;19.77;;;12.30;;
51616;SDS011;37697;52.588;13.394;2022-10-31T08:04:06;20.37;;;13.70;;
51616;SDS011;37697;52.588;13.394;2022-10-31T08:09:07;21.33;;;14.63;;
51616;SDS011;37697;52.588;13.394;2022-10-31T08:14:07;25.43;;;16.00;;
51616;SDS011;37697;52.588;13.394;2022-10-31T08:19:08;25.27;;;15.03;;
51616;SDS011;37697;52.588;13.394;2022-10-31T08:24:09;23.65;;;15.65;;
51616;SDS011;37697;52.588;13.394;2022-10-31T08:29:09;20.90;;;13.83;;
51616;SDS011;37697;52.588;13.394;2022-10-31T08:34:10;19.70;;;13.20;;
51616;SDS011;37697;52.588;13.394;2022-10-31T08:44:11;19.48;;;14.13;;
51616;SDS011;37697;52.588;13.394;2022-10-31T08:49:12;21.80;;;15.00;;
51616;SDS011;37697;52.588;13.394;2022-10-31T08:54:13;21.67;;;14.40;;
51616;SDS011;37697;52.588;13.394;2022-10-31T08:59:13;21.45;;;13.05;;
51616;SDS011;37697;52.588;13.394;2022-10-31T09:04:14;26.10;;;15.27;;
51616;SDS011;37697;52.588;13.394;2022-10-31T09:09:15;25.37;;;16.37;;
51616;SDS011;37697;52.588;13.394;2022-10-31T09:14:15;16.57;;;13.72;;
51616;SDS011;37697;52.588;13.394;2022-10-31T09:19:16;21.70;;;14.97;;
51616;SDS011;37697;52.588;13.394;2022-10-31T09:24:17;22.60;;;16.15;;
51616;SDS011;37697;52.588;13.394;2022-10-31T09:29:18;26.20;;;17.60;;
51616;SDS011;37697;52.588;13.394;2022-10-31T09:34:18;25.43;;;17.00;;
51616;SDS011;37697;52.588;13.394;2022-10-31T09:39:19;31.60;;;16.82;;
51616;SDS011;37697;52.588;13.394;2022-10-31T09:44:22;22.40;;;17.02;;
51616;SDS011;37697;52.588;13.394;2022-10-31T09:49:53;25.37;;;16.77;;
51616;SDS011;37697;52.588;13.394;2022-10-31T09:55:02;23.67;;;17.55;;
51616;SDS011;37697;52.588;13.394;2022-10-31T10:00:21;23.75;;;16.12;;
51616;SDS011;37697;52.588;13.394;2022-10-31T10:05:29;22.62;;;16.77;;
51616;SDS011;37697;52.588;13.394;2022-10-31T10:16:00;23.62;;;15.70;;
51616;SDS011;37697;52.588;13.394;2022-10-31T10:26:35;20.50;;;14.43;;
51616;SDS011;37697;52.588;13.394;2022-10-31T10:31:39;24.80;;;16.40;;
51616;SDS011;37697;52.588;13.394;2022-10-31T10:36:43;25.08;;;16.70;;
51616;SDS011;37697;52.588;13.394;2022-10-31T10:42:12;21.23;;;14.15;;
51616;SDS011;37697;52.588;13.394;2022-10-31T10:47:39;22.52;;;14.80;;
51616;SDS011;37697;52.588;13.394;2022-10-31T10:58:07;26.12;;;17.55;;
51616;SDS011;37697;52.588;13.394;2022-10-31T11:03:10;22.85;;;16.77;;
51616;SDS011;37697;52.588;13.394;2022-10-31T11:08:11;26.00;;;16.52;;
51616;SDS011;37697;52.588;13.394;2022-10-31T11:18:29;26.35;;;16.02;;
51616;SDS011;37697;52.588;13.394;2022-10-31T11:23:30;21.97;;;15.50;;
51616;SDS011;37697;52.588;13.394;2022-10-31T11:28:32;26.87;;;17.27;;
51616;SDS011;37697;52.588;13.394;2022-10-31T11:33:37;20.25;;;13.38;;
51616;SDS011;37697;52.588;13.394;2022-10-31T11:38:46;23.52;;;15.35;;
51616;SDS011;37697;52.588;13.394;2022-10-31T11:43:50;21.70;;;14.78;;
51616;SDS011;37697;52.588;13.394;2022-10-31T11:48:55;23.05;;;14.58;;
51616;SDS011;37697;52.588;13.394;2022-10-31T11:53:57;25.17;;;15.65;;
51616;SDS011;37697;52.588;13.394;2022-10-31T11:59:03;22.10;;;16.62;;
51616;SDS011;37697;52.588;13.394;2022-10-31T12:04:06;24.30;;;15.23;;
51616;SDS011;37697;52.588;13.394;2022-10-31T12:09:14;20.08;;;12.93;;
51616;SDS011;37697;52.588;13.394;2022-10-31T12:25:19;23.15;;;15.23;;
51616;SDS011;37697;52.588;13.394;2022-10-31T12:41:22;23.30;;;14.73;;
51616;SDS011;37697;52.588;13.394;2022-10-31T12:46:35;20.35;;;13.20;;
51616;SDS011;37697;52.588;13.394;2022-10-31T13:03:00;26.87;;;15.78;;
51616;SDS011;37697;52.588;13.394;2022-10-31T13:08:11;22.10;;;15.00;;
51616;SDS011;37697;52.588;13.394;2022-10-31T13:13:19;25.12;;;14.90;;
51616;SDS011;37697;52.588;13.394;2022-10-31T13:18:28;22.30;;;13.98;;
51616;SDS011;37697;52.588;13.394;2022-10-31T13:23:36;24.75;;;14.87;;
51616;SDS011;37697;52.588;13.394;2022-10-31T13:28:43;23.32;;;15.75;;
51616;SDS011;37697;52.588;13.394;2022-10-31T13:34:28;20.20;;;15.55;;
51616;SDS011;37697;52.588;13.394;2022-10-31T13:39:41;22.90;;;14.28;;
51616;SDS011;37697;52.588;13.394;2022-10-31T13:44:51;21.55;;;14.38;;
51616;SDS011;37697;52.588;13.394;2022-10-31T13:49:51;20.08;;;14.23;;
51616;SDS011;37697;52.588;13.394;2022-10-31T13:55:07;24.10;;;15.55;;
51616;SDS011;37697;52.588;13.394;2022-10-31T14:10:35;21.73;;;17.37;;
51616;SDS011;37697;52.588;13.394;2022-10-31T14:15:38;24.37;;;17.62;;
51616;SDS011;37697;52.588;13.394;2022-10-31T14:20:43;27.42;;;17.50;;
51616;SDS011;37697;52.588;13.394;2022-10-31T14:25:45;25.60;;;19.50;;
51616;SDS011;37697;52.588;13.394;2022-10-31T14:30:53;25.60;;;19.17;;
51616;SDS011;37697;52.588;13.394;2022-10-31T14:36:15;26.93;;;19.95;;
51616;SDS011;37697;52.588;13.394;2022-10-31T14:41:27;24.67;;;17.85;;
51616;SDS011;37697;52.588;13.394;2022-10-31T14:51:47;26.23;;;21.17;;
51616;SDS011;37697;52.588;13.394;2022-10-31T14:56:54;31.35;;;22.75;;
51616;SDS011;37697;52.588;13.394;2022-10-31T15:02:00;32.67;;;22.75;;
51616;SDS011;37697;52.588;13.394;2022-10-31T15:07:13;29.90;;;21.33;;
51616;SDS011;37697;52.588;13.394;2022-10-31T15:12:30;30.92;;;23.07;;
51616;SDS011;37697;52.588;13.394;2022-10-31T15:17:34;29.85;;;21.65;;
51616;SDS011;37697;52.588;13.394;2022-10-31T15:22:34;36.47;;;25.30;;
51616;SDS011;37697;52.588;13.394;2022-10-31T15:27:35;32.75;;;24.12;;
51616;SDS011;37697;52.588;13.394;2022-10-31T15:32:36;31.05;;;24.95;;
51616;SDS011;37697;52.588;13.394;2022-10-31T15:37:39;33.98;;;26.27;;
51616;SDS011;37697;52.588;13.394;2022-10-31T15:42:39;34.00;;;26.20;;
51616;SDS011;37697;52.588;13.394;2022-10-31T15:47:45;36.73;;;28.45;;
51616;SDS011;37697;52.588;13.394;2022-10-31T15:52:59;37.00;;;26.48;;
51616;SDS011;37697;52.588;13.394;2022-10-31T15:58:02;41.15;;;29.18;;
51616;SDS011;37697;52.588;13.394;2022-10-31T16:03:20;43.10;;;31.17;;
51616;SDS011;37697;52.588;13.394;2022-10-31T16:13:35;36.17;;;25.85;;
51616;SDS011;37697;52.588;13.394;2022-10-31T16:18:44;35.55;;;25.15;;
51616;SDS011;37697;52.588;13.394;2022-10-31T16:28:51;40.95;;;28.83;;
51616;SDS011;37697;52.588;13.394;2022-10-31T16:34:04;39.25;;;28.98;;
51616;SDS011;37697;52.588;13.394;2022-10-31T16:39:12;37.38;;;28.75;;
51616;SDS011;37697;52.588;13.394;2022-10-31T16:44:18;43.33;;;29.32;;
51616;SDS011;37697;52.588;13.394;2022-10-31T16:49:24;33.77;;;24.63;;
51616;SDS011;37697;52.588;13.394;2022-10-31T16:54:25;46.18;;;28.47;;
51616;SDS011;37697;52.588;13.394;2022-10-31T16:59:26;36.80;;;26.00;;
51616;SDS011;37697;52.588;13.394;2022-10-31T17:04:27;31.97;;;25.75;;
51616;SDS011;37697;52.588;13.394;2022-10-31T17:09:28;123.45;;;26.45;;
51616;SDS011;37697;52.588;13.394;2022-10-31T17:14:29;44.60;;;24.37;;
51616;SDS011;37697;52.588;13.394;2022-10-31T17:19:30;24.27;;;21.45;;
51616;SDS011;37697;52.588;13.394;2022-10-31T17:24:30;38.90;;;25.23;;
51616;SDS011;37697;52.588;13.394;2022-10-31T17:29:31;38.87;;;24.87;;
51616;SDS011;37697;52.588;13.394;2022-10-31T17:34:32;173.35;;;23.60;;
51616;SDS011;37697;52.588;13.394;2022-10-31T17:39:33;26.75;;;24.07;;
51616;SDS011;37697;52.588;13.394;2022-10-31T17:44:33;37.37;;;23.43;;
51616;SDS011;37697;52.588;13.394;2022-10-31T17:49:34;35.98;;;23.98;;
51616;SDS011;37697;52.588;13.394;2022-10-31T17:54:35;62.37;;;25.87;;
51616;SDS011;37697;52.588;13.394;2022-10-31T17:59:36;61.67;;;22.07;;
51616;SDS011;37697;52.588;13.394;2022-10-31T18:04:37;60.57;;;27.50;;
51616;SDS011;37697;52.588;13.394;2022-10-31T18:09:40;39.20;;;26.52;;
51616;SDS011;37697;52.588;13.394;2022-10-31T18:19:41;31.15;;;21.60;;
51616;SDS011;37697;52.588;13.394;2022-10-31T18:29:43;44.70;;;23.18;;
51616;SDS011;37697;52.588;13.394;2022-10-31T18:34:43;91.83;;;24.03;;
51616;SDS011;37697;52.588;13.394;2022-10-31T18:39:44;46.10;;;21.53;;
51616;SDS011;37697;52.588;13.394;2022-10-31T18:44:45;37.70;;;25.35;;
51616;SDS011;37697;52.588;13.394;2022-10-31T18:54:46;26.00;;;21.80;;
51616;SDS011;37697;52.588;13.394;2022-10-31T18:59:47;43.77;;;20.60;;
51616;SDS011;37697;52.588;13.394;2022-10-31T19:04:48;23.70;;;19.85;;
51616;SDS011;37697;52.588;13.394;2022-10-31T19:09:49;23.22;;;20.62;;
51616;SDS011;37697;52.588;13.394;2022-10-31T19:14:50;35.35;;;21.50;;
51616;SDS011;37697;52.588;13.394;2022-10-31T19:19:51;63.77;;;21.80;;
51616;SDS011;37697;52.588;13.394;2022-10-31T19:24:51;55.83;;;25.03;;
51616;SDS011;37697;52.588;13.394;2022-10-31T19:29:52;59.77;;;24.53;;
51616;SDS011;37697;52.588;13.394;2022-10-31T19:34:53;86.60;;;24.47;;
51616;SDS011;37697;52.588;13.394;2022-10-31T19:39:54;29.73;;;23.70;;
51616;SDS011;37697;52.588;13.394;2022-10-31T19:44:54;33.67;;;26.07;;
51616;SDS011;37697;52.588;13.394;2022-10-31T19:49:55;36.33;;;24.93;;
51616;SDS011;37697;52.588;13.394;2022-10-31T19:54:56;33.37;;;26.73;;
51616;SDS011;37697;52.588;13.394;2022-10-31T19:59:56;180.50;;;30.67;;
51616;SDS011;37697;52.588;13.394;2022-10-31T20:04:57;88.73;;;28.67;;
51616;SDS011;37697;52.588;13.394;2022-10-31T20:09:59;137.85;;;28.77;;
51616;SDS011;37697;52.588;13.394;2022-10-31T20:14:59;100.90;;;27.93;;
51616;SDS011;37697;52.588;13.394;2022-10-31T20:20:00;79.35;;;29.90;;
51616;SDS011;37697;52.588;13.394;2022-10-31T20:25:03;39.33;;;30.32;;
51616;SDS011;37697;52.588;13.394;2022-10-31T20:30:05;115.82;;;33.42;;
51616;SDS011;37697;52.588;13.394;2022-10-31T20:35:07;33.38;;;26.68;;
51616;SDS011;37697;52.588;13.394;2022-10-31T20:40:09;69.80;;;32.33;;
51616;SDS011;37697;52.588;13.394;2022-10-31T20:45:10;91.47;;;32.42;;
51616;SDS011;37697;52.588;13.394;2022-10-31T20:50:10;58.23;;;31.93;;
51616;SDS011;37697;52.588;13.394;2022-10-31T20:55:11;34.07;;;28.30;;
51616;SDS011;37697;52.588;13.394;2022-10-31T21:00:12;43.02;;;29.95;;
51616;SDS011;37697;52.588;13.394;2022-10-31T21:05:13;93.67;;;32.58;;
51616;SDS011;37697;52.588;13.394;2022-10-31T21:10:14;127.07;;;33.27;;
51616;SDS011;37697;52.588;13.394;2022-10-31T21:15:15;117.75;;;32.28;;
51616;SDS011;37697;52.588;13.394;2022-10-31T21:20:16;36.58;;;29.42;;
51616;SDS011;37697;52.588;13.394;2022-10-31T21:25:16;75.30;;;35.93;;
51616;SDS011;37697;52.588;13.394;2022-10-31T21:30:17;48.17;;;33.07;;
51616;SDS011;37697;52.588;13.394;2022-10-31T21:35:18;38.53;;;31.27;;
51616;SDS011;37697;52.588;13.394;2022-10-31T21:40:18;46.87;;;31.73;;
51616;SDS011;37697;52.588;13.394;2022-10-31T21:45:19;42.60;;;30.73;;
51616;SDS011;37697;52.588;13.394;2022-10-31T21:50:20;42.55;;;29.85;;
51616;SDS011;37697;52.588;13.394;2022-10-31T21:55:22;41.28;;;26.00;;
51616;SDS011;37697;52.588;13.394;2022-10-31T22:00:22;58.13;;;28.67;;
51616;SDS011;37697;52.588;13.394;2022-10-31T22:05:23;43.70;;;26.03;;
51616;SDS011;37697;52.588;13.394;2022-10-31T22:10:24;40.17;;;27.60;;
51616;SDS011;37697;52.588;13.394;2022-10-31T22:15:24;48.78;;;26.57;;
51616;SDS011;37697;52.588;13.394;2022-10-31T22:20:25;43.60;;;27.40;;
51616;SDS011;37697;52.588;13.394;2022-10-31T22:25:26;30.27;;;25.63;;
51616;SDS011;37697;52.588;13.394;2022-10-31T22:30:26;37.73;;;26.40;;
51616;SDS011;37697;52.588;13.394;2022-10-31T22:35:27;65.62;;;27.73;;
51616;SDS011;37697;52.588;13.394;2022-10-31T22:40:28;35.07;;;26.80;;
51616;SDS011;37697;52.588;13.394;2022-10-31T22:45:28;55.60;;;32.53;;
51616;SDS011;37697;52.588;13.394;2022-10-31T22:50:29;68.97;;;27.75;;
51616;SDS011;37697;52.588;13.394;2022-10-31T22:55:30;73.90;;;25.80;;
51616;SDS011;37697;52.588;13.394;2022-10-31T23:00:34;73.65;;;25.48;;
51616;SDS011;37697;52.588;13.394;2022-10-31T23:05:34;50.25;;;21.52;;
51616;SDS011;37697;52.588;13.394;2022-10-31T23:10:35;64.67;;;23.87;;
51616;SDS011;37697;52.588;13.394;2022-10-31T23:15:37;60.15;;;25.35;;
51616;SDS011;37697;52.588;13.394;2022-10-31T23:20:38;53.37;;;25.63;;
51616;SDS011;37697;52.588;13.394;2022-10-31T23:25:39;30.20;;;22.77;;
51616;SDS011;37697;52.588;13.394;2022-10-31T23:30:58;58.90;;;22.77;;
51616;SDS011;37697;52.588;13.394;2022-10-31T23:35:59;65.37;;;27.87;;
51616;SDS011;37697;52.588;13.394;2022-10-31T23:41:00;61.53;;;25.20;;
51616;SDS011;37697;52.588;13.394;2022-10-31T23:46:00;82.73;;;26.10;;
51616;SDS011;37697;52.588;13.394;2022-10-31T23:51:01;34.53;;;25.20;;
51616;SDS011;37697;52.588;13.394;2022-10-31T23:56:02;48.83;;;26.20;;
